EWG8GJ EDDS-EGKK
Flight info
| Callsign | EWG8GJ |
|---|---|
| Flight time | 1h 25m |
| Altitude | 38000 |
| Route | VESID4B VESID Y127 BANIM L608 LIRSU DCT SPI DCT DENUT L610 TEBRA |
| Aircraft | A319/M-SDE2E3FGIJ1RWXYZ/EB1 |
Departure
| Time | 2026-05-07 13:11 |
|---|---|
| Airport | Stuttgart Airport (EDDS) |
Arrival
| Time | 2026-05-07 14:36 |
|---|---|
| Airport | London Gatwick Airport (EGKK) |
| Time | Latitude | Longitude | Altitude | Speed | Heading |
|---|---|---|---|---|---|
| 2026-05-07 12:38 | 48.68716 | 9.19264 | 1314 ft | 0 kts | 164° |
| 2026-05-07 13:04 | 48.68704 | 9.19270 | 1314 ft | 4 kts | 163° |
| 2026-05-07 13:04 | 48.68666 | 9.19293 | 1312 ft | 8 kts | 140° |
| 2026-05-07 13:04 | 48.68673 | 9.19399 | 1309 ft | 13 kts | 73° |
| 2026-05-07 13:04 | 48.68705 | 9.19560 | 1305 ft | 19 kts | 73° |
| 2026-05-07 13:05 | 48.68743 | 9.19777 | 1299 ft | 24 kts | 75° |
| 2026-05-07 13:05 | 48.68763 | 9.20006 | 1292 ft | 22 kts | 86° |
| 2026-05-07 13:05 | 48.68826 | 9.20079 | 1293 ft | 13 kts | 33° |
| 2026-05-07 13:05 | 48.68879 | 9.20244 | 1290 ft | 21 kts | 74° |
| 2026-05-07 13:06 | 48.68923 | 9.20482 | 1286 ft | 26 kts | 73° |
| 2026-05-07 13:06 | 48.68979 | 9.20770 | 1278 ft | 29 kts | 74° |
| 2026-05-07 13:06 | 48.69029 | 9.21043 | 1270 ft | 26 kts | 74° |
| 2026-05-07 13:06 | 48.69083 | 9.21323 | 1266 ft | 30 kts | 74° |
| 2026-05-07 13:07 | 48.69139 | 9.21620 | 1258 ft | 28 kts | 74° |
| 2026-05-07 13:07 | 48.69194 | 9.21907 | 1255 ft | 28 kts | 74° |
| 2026-05-07 13:07 | 48.69250 | 9.22208 | 1254 ft | 31 kts | 74° |
| 2026-05-07 13:07 | 48.69309 | 9.22517 | 1242 ft | 26 kts | 74° |
| 2026-05-07 13:08 | 48.69358 | 9.22773 | 1230 ft | 27 kts | 73° |
| 2026-05-07 13:08 | 48.69410 | 9.23043 | 1225 ft | 27 kts | 74° |
| 2026-05-07 13:08 | 48.69457 | 9.23297 | 1220 ft | 22 kts | 74° |
| 2026-05-07 13:08 | 48.69498 | 9.23511 | 1215 ft | 19 kts | 74° |
| 2026-05-07 13:09 | 48.69521 | 9.23683 | 1211 ft | 13 kts | 99° |
| 2026-05-07 13:09 | 48.69435 | 9.23750 | 1206 ft | 16 kts | 191° |
| 2026-05-07 13:09 | 48.69352 | 9.23654 | 1204 ft | 18 kts | 224° |
| 2026-05-07 13:09 | 48.69277 | 9.23546 | 1206 ft | 13 kts | 223° |
| 2026-05-07 13:10 | 48.69229 | 9.23466 | 1208 ft | 9 kts | 243° |
| 2026-05-07 13:10 | 48.69203 | 9.23332 | 1211 ft | 28 kts | 254° |
| 2026-05-07 13:10 | 48.69081 | 9.22683 | 1223 ft | 97 kts | 253° |
| 2026-05-07 13:10 | 48.68843 | 9.21421 | 1282 ft | 147 kts | 256° |
| 2026-05-07 13:11 | 48.68571 | 9.19964 | 1939 ft | 143 kts | 256° |
| 2026-05-07 13:11 | 48.68295 | 9.18518 | 2592 ft | 143 kts | 255° |
| 2026-05-07 13:11 | 48.68004 | 9.17020 | 3036 ft | 157 kts | 255° |
| 2026-05-07 13:11 | 48.67673 | 9.15328 | 3375 ft | 179 kts | 254° |
| 2026-05-07 13:12 | 48.67293 | 9.13403 | 3720 ft | 204 kts | 254° |
| 2026-05-07 13:12 | 48.66970 | 9.11190 | 4205 ft | 226 kts | 272° |
| 2026-05-07 13:12 | 48.67533 | 9.08957 | 5046 ft | 235 kts | 306° |
| 2026-05-07 13:12 | 48.68627 | 9.07096 | 6069 ft | 241 kts | 320° |
| 2026-05-07 13:13 | 48.70174 | 9.05950 | 6803 ft | 261 kts | 341° |
| 2026-05-07 13:13 | 48.71960 | 9.05123 | 7585 ft | 273 kts | 340° |
| 2026-05-07 13:13 | 48.73787 | 9.04248 | 8567 ft | 277 kts | 339° |
| 2026-05-07 13:13 | 48.75638 | 9.03337 | 9551 ft | 282 kts | 339° |
| 2026-05-07 13:14 | 48.77517 | 9.02390 | 10370 ft | 292 kts | 339° |
| 2026-05-07 13:14 | 48.79523 | 9.01358 | 10738 ft | 315 kts | 339° |
| 2026-05-07 13:14 | 48.81615 | 9.00188 | 11389 ft | 325 kts | 337° |
| 2026-05-07 13:14 | 48.83734 | 8.98940 | 12208 ft | 329 kts | 336° |
| 2026-05-07 13:15 | 48.85852 | 8.97668 | 13032 ft | 333 kts | 336° |
| 2026-05-07 13:15 | 48.88010 | 8.96366 | 13893 ft | 336 kts | 336° |
| 2026-05-07 13:15 | 48.90234 | 8.95028 | 14607 ft | 340 kts | 336° |
| 2026-05-07 13:15 | 48.92442 | 8.93705 | 15323 ft | 344 kts | 336° |
| 2026-05-07 13:16 | 48.94655 | 8.92387 | 16038 ft | 347 kts | 336° |
| 2026-05-07 13:16 | 48.96956 | 8.91023 | 16778 ft | 351 kts | 337° |
| 2026-05-07 13:16 | 48.99233 | 8.89671 | 17499 ft | 355 kts | 336° |
| 2026-05-07 13:16 | 49.01551 | 8.88290 | 18229 ft | 358 kts | 336° |
| 2026-05-07 13:17 | 49.03885 | 8.86896 | 18865 ft | 362 kts | 336° |
| 2026-05-07 13:17 | 49.06205 | 8.85509 | 19490 ft | 365 kts | 336° |
| 2026-05-07 13:17 | 49.08575 | 8.84087 | 20137 ft | 368 kts | 336° |
| 2026-05-07 13:17 | 49.10979 | 8.82657 | 20763 ft | 372 kts | 338° |
| 2026-05-07 13:18 | 49.13500 | 8.81635 | 21383 ft | 377 kts | 344° |
| 2026-05-07 13:18 | 49.16067 | 8.80719 | 22015 ft | 381 kts | 344° |
| 2026-05-07 13:18 | 49.18686 | 8.79795 | 22275 ft | 394 kts | 344° |
| 2026-05-07 13:18 | 49.21409 | 8.78835 | 22538 ft | 406 kts | 345° |
| 2026-05-07 13:19 | 49.24179 | 8.77865 | 23008 ft | 411 kts | 345° |
| 2026-05-07 13:19 | 49.26987 | 8.76885 | 23522 ft | 414 kts | 345° |
| 2026-05-07 13:19 | 49.29800 | 8.75900 | 23969 ft | 417 kts | 345° |
| 2026-05-07 13:19 | 49.32654 | 8.74903 | 24410 ft | 420 kts | 345° |
| 2026-05-07 13:20 | 49.35514 | 8.73899 | 24849 ft | 423 kts | 345° |
| 2026-05-07 13:20 | 49.38390 | 8.72880 | 25289 ft | 426 kts | 345° |
| 2026-05-07 13:20 | 49.41279 | 8.71847 | 25729 ft | 429 kts | 345° |
| 2026-05-07 13:20 | 49.44194 | 8.70805 | 26186 ft | 431 kts | 345° |
| 2026-05-07 13:21 | 49.47118 | 8.69756 | 26625 ft | 434 kts | 345° |
| 2026-05-07 13:21 | 49.50068 | 8.68698 | 27046 ft | 436 kts | 345° |
| 2026-05-07 13:21 | 49.53034 | 8.67639 | 27466 ft | 439 kts | 345° |
| 2026-05-07 13:21 | 49.56018 | 8.66571 | 27872 ft | 441 kts | 345° |
| 2026-05-07 13:22 | 49.59018 | 8.65492 | 28265 ft | 444 kts | 345° |
| 2026-05-07 13:22 | 49.62034 | 8.64409 | 28650 ft | 447 kts | 345° |
| 2026-05-07 13:22 | 49.65086 | 8.63316 | 29035 ft | 449 kts | 346° |
| 2026-05-07 13:22 | 49.68127 | 8.62174 | 29411 ft | 451 kts | 342° |
| 2026-05-07 13:23 | 49.71041 | 8.60415 | 29768 ft | 452 kts | 332° |
| 2026-05-07 13:23 | 49.73690 | 8.57921 | 30190 ft | 450 kts | 322° |
| 2026-05-07 13:23 | 49.76053 | 8.54770 | 30623 ft | 448 kts | 315° |
| 2026-05-07 13:23 | 49.78323 | 8.51452 | 31059 ft | 447 kts | 315° |
| 2026-05-07 13:24 | 49.80588 | 8.48149 | 31487 ft | 447 kts | 316° |
| 2026-05-07 13:24 | 49.82772 | 8.44748 | 31915 ft | 445 kts | 310° |
| 2026-05-07 13:24 | 49.84598 | 8.40878 | 32348 ft | 444 kts | 300° |
| 2026-05-07 13:24 | 49.85982 | 8.36612 | 32777 ft | 443 kts | 291° |
| 2026-05-07 13:25 | 49.86970 | 8.32084 | 33222 ft | 442 kts | 287° |
| 2026-05-07 13:25 | 49.87908 | 8.27553 | 33682 ft | 442 kts | 288° |
| 2026-05-07 13:25 | 49.88855 | 8.23023 | 34121 ft | 441 kts | 288° |
| 2026-05-07 13:25 | 49.89808 | 8.18500 | 34498 ft | 441 kts | 288° |
| 2026-05-07 13:26 | 49.90763 | 8.13968 | 34864 ft | 441 kts | 288° |
| 2026-05-07 13:26 | 49.91715 | 8.09437 | 35215 ft | 442 kts | 288° |
| 2026-05-07 13:26 | 49.92666 | 8.04894 | 35548 ft | 442 kts | 287° |
| 2026-05-07 13:26 | 49.93610 | 8.00356 | 35859 ft | 442 kts | 287° |
| 2026-05-07 13:27 | 49.94472 | 7.95776 | 36173 ft | 442 kts | 281° |
| 2026-05-07 13:27 | 49.94929 | 7.91114 | 36479 ft | 442 kts | 276° |
| 2026-05-07 13:27 | 49.95303 | 7.86368 | 36787 ft | 442 kts | 276° |
| 2026-05-07 13:27 | 49.95557 | 7.83169 | 36996 ft | 442 kts | 276° |
| 2026-05-07 13:28 | 49.96056 | 7.76888 | 37402 ft | 442 kts | 276° |
| 2026-05-07 13:28 | 49.96433 | 7.72154 | 37720 ft | 442 kts | 276° |
| 2026-05-07 13:28 | 49.96809 | 7.67411 | 37986 ft | 442 kts | 276° |
| 2026-05-07 13:28 | 49.97180 | 7.62703 | 38047 ft | 437 kts | 276° |
| 2026-05-07 13:29 | 49.97793 | 7.54786 | 38046 ft | 443 kts | 276° |
| 2026-05-07 13:29 | 49.98518 | 7.45282 | 38055 ft | 444 kts | 276° |
| 2026-05-07 13:30 | 49.99237 | 7.35791 | 38057 ft | 444 kts | 276° |
| 2026-05-07 13:30 | 49.99957 | 7.26272 | 38057 ft | 445 kts | 276° |
| 2026-05-07 13:31 | 50.00673 | 7.16719 | 38053 ft | 445 kts | 276° |
| 2026-05-07 13:31 | 50.01375 | 7.07167 | 38050 ft | 445 kts | 275° |
| 2026-05-07 13:32 | 50.02063 | 6.97612 | 38048 ft | 445 kts | 275° |
| 2026-05-07 13:32 | 50.03561 | 6.88303 | 38037 ft | 447 kts | 293° |
| 2026-05-07 13:33 | 50.06527 | 6.79732 | 38048 ft | 448 kts | 298° |
| 2026-05-07 13:33 | 50.09520 | 6.71303 | 38044 ft | 448 kts | 297° |
| 2026-05-07 13:34 | 50.14027 | 6.58546 | 38039 ft | 448 kts | 297° |
| 2026-05-07 13:35 | 50.17021 | 6.50024 | 38028 ft | 448 kts | 297° |
| 2026-05-07 13:35 | 50.20064 | 6.41531 | 38043 ft | 449 kts | 299° |
| 2026-05-07 13:36 | 50.23376 | 6.33267 | 38044 ft | 449 kts | 301° |
| 2026-05-07 13:36 | 50.26770 | 6.25071 | 38054 ft | 449 kts | 301° |
| 2026-05-07 13:37 | 50.30103 | 6.16815 | 38050 ft | 449 kts | 300° |
| 2026-05-07 13:37 | 50.33377 | 6.08513 | 38050 ft | 449 kts | 300° |
| 2026-05-07 13:38 | 50.36654 | 6.00181 | 38055 ft | 449 kts | 300° |
| 2026-05-07 13:38 | 50.39938 | 5.91842 | 38062 ft | 449 kts | 300° |
| 2026-05-07 13:39 | 50.43215 | 5.83504 | 38059 ft | 448 kts | 300° |
| 2026-05-07 13:39 | 50.46464 | 5.75225 | 38055 ft | 448 kts | 300° |
| 2026-05-07 13:40 | 50.49724 | 5.66859 | 38063 ft | 448 kts | 300° |
| 2026-05-07 13:40 | 50.52968 | 5.58492 | 38069 ft | 448 kts | 300° |
| 2026-05-07 13:41 | 50.56169 | 5.50076 | 38077 ft | 448 kts | 299° |
| 2026-05-07 13:41 | 50.59343 | 5.41647 | 38077 ft | 448 kts | 299° |
| 2026-05-07 13:42 | 50.62529 | 5.33204 | 38087 ft | 448 kts | 299° |
| 2026-05-07 13:42 | 50.65718 | 5.24733 | 38083 ft | 448 kts | 299° |
| 2026-05-07 13:43 | 50.68892 | 5.16259 | 38084 ft | 449 kts | 299° |
| 2026-05-07 13:43 | 50.72040 | 5.07831 | 38084 ft | 449 kts | 299° |
| 2026-05-07 13:44 | 50.75203 | 4.99352 | 38081 ft | 449 kts | 298° |
| 2026-05-07 13:44 | 50.78367 | 4.90833 | 38090 ft | 449 kts | 298° |
| 2026-05-07 13:45 | 50.81526 | 4.82314 | 38088 ft | 449 kts | 298° |
| 2026-05-07 13:45 | 50.84668 | 4.73776 | 38085 ft | 449 kts | 298° |
| 2026-05-07 13:46 | 50.87786 | 4.65283 | 38096 ft | 449 kts | 298° |
| 2026-05-07 13:46 | 50.90941 | 4.56688 | 38091 ft | 449 kts | 298° |
| 2026-05-07 13:47 | 50.94069 | 4.48132 | 38085 ft | 449 kts | 298° |
| 2026-05-07 13:47 | 50.97170 | 4.39604 | 38085 ft | 449 kts | 298° |
| 2026-05-07 13:48 | 51.00289 | 4.31018 | 38084 ft | 449 kts | 298° |
| 2026-05-07 13:48 | 51.03402 | 4.22419 | 38083 ft | 449 kts | 298° |
| 2026-05-07 13:49 | 51.06506 | 4.13800 | 38087 ft | 449 kts | 298° |
| 2026-05-07 13:49 | 51.09604 | 4.05177 | 38086 ft | 449 kts | 298° |
| 2026-05-07 13:50 | 51.12697 | 3.96526 | 38081 ft | 449 kts | 298° |
| 2026-05-07 13:50 | 51.15781 | 3.87864 | 38082 ft | 449 kts | 298° |
| 2026-05-07 13:51 | 51.18861 | 3.79208 | 38089 ft | 449 kts | 297° |
| 2026-05-07 13:51 | 51.21934 | 3.70529 | 38088 ft | 449 kts | 297° |
| 2026-05-07 13:52 | 51.24215 | 3.61341 | 38085 ft | 445 kts | 281° |
| 2026-05-07 13:52 | 51.25487 | 3.51675 | 37682 ft | 444 kts | 280° |
| 2026-05-07 13:52 | 51.26120 | 3.46896 | 37412 ft | 438 kts | 280° |
| 2026-05-07 13:53 | 51.26748 | 3.42176 | 37029 ft | 434 kts | 280° |
| 2026-05-07 13:53 | 51.27373 | 3.37437 | 36270 ft | 438 kts | 280° |
| 2026-05-07 13:53 | 51.27994 | 3.32646 | 35532 ft | 440 kts | 280° |
| 2026-05-07 13:53 | 51.28606 | 3.27864 | 35022 ft | 437 kts | 280° |
| 2026-05-07 13:54 | 51.29208 | 3.23125 | 34541 ft | 434 kts | 280° |
| 2026-05-07 13:54 | 51.29804 | 3.18421 | 34041 ft | 431 kts | 280° |
| 2026-05-07 13:54 | 51.30399 | 3.13743 | 33496 ft | 427 kts | 280° |
| 2026-05-07 13:54 | 51.30986 | 3.09134 | 33019 ft | 422 kts | 280° |
| 2026-05-07 13:55 | 51.31568 | 3.04559 | 32513 ft | 417 kts | 280° |
| 2026-05-07 13:55 | 51.32134 | 3.00091 | 32030 ft | 413 kts | 280° |
| 2026-05-07 13:55 | 51.32703 | 2.95556 | 31532 ft | 409 kts | 280° |
| 2026-05-07 13:55 | 51.33249 | 2.91176 | 31055 ft | 405 kts | 280° |
| 2026-05-07 13:56 | 51.33799 | 2.86760 | 30580 ft | 401 kts | 280° |
| 2026-05-07 13:56 | 51.34337 | 2.82417 | 30106 ft | 399 kts | 280° |
| 2026-05-07 13:56 | 51.34876 | 2.78044 | 29608 ft | 401 kts | 280° |
| 2026-05-07 13:56 | 51.35417 | 2.73660 | 29156 ft | 400 kts | 280° |
| 2026-05-07 13:57 | 51.35954 | 2.69311 | 28710 ft | 397 kts | 280° |
| 2026-05-07 13:57 | 51.36488 | 2.64988 | 28275 ft | 395 kts | 280° |
| 2026-05-07 13:57 | 51.37024 | 2.60674 | 27845 ft | 392 kts | 280° |
| 2026-05-07 13:57 | 51.37550 | 2.56413 | 27433 ft | 390 kts | 279° |
| 2026-05-07 13:58 | 51.38071 | 2.52169 | 27014 ft | 387 kts | 279° |
| 2026-05-07 13:58 | 51.38586 | 2.47950 | 26622 ft | 385 kts | 279° |
| 2026-05-07 13:58 | 51.39096 | 2.43744 | 26223 ft | 383 kts | 279° |
| 2026-05-07 13:58 | 51.39600 | 2.39571 | 25811 ft | 381 kts | 279° |
| 2026-05-07 13:59 | 51.40097 | 2.35423 | 25395 ft | 378 kts | 279° |
| 2026-05-07 13:59 | 51.40590 | 2.31295 | 24981 ft | 376 kts | 279° |
| 2026-05-07 13:59 | 51.41082 | 2.27188 | 24540 ft | 374 kts | 279° |
| 2026-05-07 13:59 | 51.41574 | 2.23088 | 24112 ft | 372 kts | 279° |
| 2026-05-07 14:00 | 51.42066 | 2.19038 | 23667 ft | 370 kts | 279° |
| 2026-05-07 14:00 | 51.42563 | 2.15006 | 23175 ft | 367 kts | 280° |
| 2026-05-07 14:00 | 51.43057 | 2.11006 | 22733 ft | 365 kts | 280° |
| 2026-05-07 14:00 | 51.43542 | 2.07071 | 22284 ft | 362 kts | 280° |
| 2026-05-07 14:01 | 51.44023 | 2.03118 | 21834 ft | 360 kts | 279° |
| 2026-05-07 14:01 | 51.44494 | 1.99187 | 21383 ft | 358 kts | 279° |
| 2026-05-07 14:01 | 51.44955 | 1.95283 | 20938 ft | 356 kts | 279° |
| 2026-05-07 14:01 | 51.45413 | 1.91388 | 20499 ft | 354 kts | 279° |
| 2026-05-07 14:02 | 51.45867 | 1.87511 | 20047 ft | 352 kts | 279° |
| 2026-05-07 14:02 | 51.46316 | 1.83664 | 19606 ft | 350 kts | 279° |
| 2026-05-07 14:02 | 51.46761 | 1.79836 | 19156 ft | 348 kts | 279° |
| 2026-05-07 14:02 | 51.47203 | 1.76026 | 18723 ft | 346 kts | 279° |
| 2026-05-07 14:03 | 51.47636 | 1.72239 | 18266 ft | 344 kts | 279° |
| 2026-05-07 14:03 | 51.48063 | 1.68481 | 17801 ft | 342 kts | 279° |
| 2026-05-07 14:03 | 51.48475 | 1.64738 | 17354 ft | 340 kts | 276° |
| 2026-05-07 14:03 | 51.48514 | 1.60978 | 16933 ft | 336 kts | 263° |
| 2026-05-07 14:04 | 51.48028 | 1.57391 | 16509 ft | 332 kts | 250° |
| 2026-05-07 14:04 | 51.47225 | 1.53909 | 16085 ft | 332 kts | 249° |
| 2026-05-07 14:04 | 51.46423 | 1.50446 | 15655 ft | 331 kts | 249° |
| 2026-05-07 14:04 | 51.45625 | 1.46996 | 15233 ft | 329 kts | 249° |
| 2026-05-07 14:05 | 51.44833 | 1.43554 | 14818 ft | 328 kts | 249° |
| 2026-05-07 14:05 | 51.44003 | 1.40171 | 14396 ft | 325 kts | 243° |
| 2026-05-07 14:05 | 51.42767 | 1.37158 | 13993 ft | 323 kts | 228° |
| 2026-05-07 14:05 | 51.41135 | 1.34689 | 13772 ft | 324 kts | 221° |
| 2026-05-07 14:06 | 51.39541 | 1.32148 | 13500 ft | 323 kts | 227° |
| 2026-05-07 14:06 | 51.38070 | 1.29451 | 13232 ft | 321 kts | 230° |
| 2026-05-07 14:06 | 51.36651 | 1.26704 | 12968 ft | 319 kts | 230° |
| 2026-05-07 14:06 | 51.35243 | 1.23966 | 12702 ft | 318 kts | 230° |
| 2026-05-07 14:07 | 51.33827 | 1.21252 | 12437 ft | 317 kts | 229° |
| 2026-05-07 14:07 | 51.32396 | 1.18568 | 12173 ft | 314 kts | 229° |
| 2026-05-07 14:07 | 51.30967 | 1.15933 | 11909 ft | 313 kts | 228° |
| 2026-05-07 14:07 | 51.29542 | 1.13321 | 11659 ft | 312 kts | 228° |
| 2026-05-07 14:08 | 51.28115 | 1.10721 | 11405 ft | 311 kts | 228° |
| 2026-05-07 14:08 | 51.26689 | 1.08140 | 11154 ft | 309 kts | 228° |
| 2026-05-07 14:08 | 51.25267 | 1.05576 | 10902 ft | 307 kts | 228° |
| 2026-05-07 14:08 | 51.23874 | 1.03059 | 10658 ft | 298 kts | 228° |
| 2026-05-07 14:09 | 51.22521 | 1.00609 | 10411 ft | 291 kts | 228° |
| 2026-05-07 14:09 | 51.21198 | 0.98214 | 10168 ft | 285 kts | 228° |
| 2026-05-07 14:09 | 51.19895 | 0.95854 | 9974 ft | 282 kts | 228° |
| 2026-05-07 14:09 | 51.18603 | 0.93515 | 9812 ft | 280 kts | 227° |
| 2026-05-07 14:10 | 51.17313 | 0.91186 | 9666 ft | 279 kts | 227° |
| 2026-05-07 14:10 | 51.16026 | 0.88868 | 9518 ft | 279 kts | 228° |
| 2026-05-07 14:10 | 51.14738 | 0.86547 | 9372 ft | 279 kts | 228° |
| 2026-05-07 14:10 | 51.13888 | 0.85016 | 9275 ft | 278 kts | 228° |
| 2026-05-07 14:11 | 51.12608 | 0.82714 | 9137 ft | 277 kts | 227° |
| 2026-05-07 14:11 | 51.10913 | 0.79682 | 8945 ft | 277 kts | 227° |
| 2026-05-07 14:11 | 51.10047 | 0.78140 | 8848 ft | 277 kts | 227° |
| 2026-05-07 14:11 | 51.08766 | 0.75863 | 8710 ft | 276 kts | 227° |
| 2026-05-07 14:12 | 51.07481 | 0.73580 | 8570 ft | 275 kts | 228° |
| 2026-05-07 14:12 | 51.06209 | 0.71319 | 8438 ft | 275 kts | 227° |
| 2026-05-07 14:12 | 51.04942 | 0.69064 | 8300 ft | 274 kts | 227° |
| 2026-05-07 14:12 | 51.03668 | 0.66796 | 8170 ft | 274 kts | 227° |
| 2026-05-07 14:13 | 51.02398 | 0.64541 | 8036 ft | 275 kts | 228° |
| 2026-05-07 14:13 | 51.01126 | 0.62284 | 7908 ft | 273 kts | 227° |
| 2026-05-07 14:13 | 50.99860 | 0.60037 | 7783 ft | 273 kts | 227° |
| 2026-05-07 14:13 | 50.98595 | 0.57800 | 7654 ft | 272 kts | 227° |
| 2026-05-07 14:14 | 50.97328 | 0.55564 | 7532 ft | 272 kts | 227° |
| 2026-05-07 14:14 | 50.96056 | 0.53320 | 7409 ft | 273 kts | 228° |
| 2026-05-07 14:14 | 50.94792 | 0.51087 | 7289 ft | 272 kts | 228° |
| 2026-05-07 14:14 | 50.93529 | 0.48850 | 7170 ft | 272 kts | 228° |
| 2026-05-07 14:15 | 50.92463 | 0.46396 | 7056 ft | 271 kts | 244° |
| 2026-05-07 14:15 | 50.91935 | 0.43534 | 6936 ft | 273 kts | 265° |
| 2026-05-07 14:15 | 50.92081 | 0.40546 | 6919 ft | 273 kts | 279° |
| 2026-05-07 14:15 | 50.92445 | 0.37583 | 6917 ft | 274 kts | 281° |
| 2026-05-07 14:16 | 50.92831 | 0.34627 | 6921 ft | 274 kts | 281° |
| 2026-05-07 14:16 | 50.93219 | 0.31677 | 6919 ft | 274 kts | 281° |
| 2026-05-07 14:16 | 50.93613 | 0.28716 | 6922 ft | 274 kts | 282° |
| 2026-05-07 14:16 | 50.94008 | 0.25777 | 6923 ft | 274 kts | 281° |
| 2026-05-07 14:17 | 50.94405 | 0.22815 | 6926 ft | 274 kts | 281° |
| 2026-05-07 14:17 | 50.94796 | 0.19859 | 6932 ft | 274 kts | 281° |
| 2026-05-07 14:17 | 50.95189 | 0.16902 | 6937 ft | 274 kts | 281° |
| 2026-05-07 14:17 | 50.95586 | 0.13955 | 6940 ft | 274 kts | 282° |
| 2026-05-07 14:18 | 50.95985 | 0.10988 | 6783 ft | 274 kts | 281° |
| 2026-05-07 14:18 | 50.96379 | 0.08040 | 6587 ft | 272 kts | 281° |
| 2026-05-07 14:18 | 50.96767 | 0.05107 | 6398 ft | 272 kts | 281° |
| 2026-05-07 14:18 | 50.97149 | 0.02177 | 6193 ft | 271 kts | 281° |
| 2026-05-07 14:19 | 50.97525 | -0.00743 | 6011 ft | 269 kts | 281° |
| 2026-05-07 14:19 | 50.97892 | -0.03608 | 5823 ft | 261 kts | 281° |
| 2026-05-07 14:19 | 50.98244 | -0.06380 | 5682 ft | 252 kts | 281° |
| 2026-05-07 14:19 | 50.98580 | -0.09022 | 5554 ft | 246 kts | 281° |
| 2026-05-07 14:20 | 50.98922 | -0.11721 | 5426 ft | 245 kts | 281° |
| 2026-05-07 14:20 | 50.99258 | -0.14370 | 5297 ft | 245 kts | 281° |
| 2026-05-07 14:20 | 50.99593 | -0.17015 | 5169 ft | 244 kts | 281° |
| 2026-05-07 14:20 | 50.99926 | -0.19644 | 5042 ft | 240 kts | 281° |
| 2026-05-07 14:21 | 51.00250 | -0.22195 | 4893 ft | 234 kts | 281° |
| 2026-05-07 14:21 | 51.00569 | -0.24712 | 4709 ft | 232 kts | 281° |
| 2026-05-07 14:21 | 51.00884 | -0.27192 | 4527 ft | 231 kts | 281° |
| 2026-05-07 14:21 | 51.01203 | -0.29688 | 4343 ft | 231 kts | 281° |
| 2026-05-07 14:22 | 51.01520 | -0.32172 | 4162 ft | 226 kts | 281° |
| 2026-05-07 14:22 | 51.01830 | -0.34590 | 3983 ft | 221 kts | 281° |
| 2026-05-07 14:22 | 51.02139 | -0.36972 | 3799 ft | 220 kts | 281° |
| 2026-05-07 14:22 | 51.02495 | -0.39326 | 3618 ft | 220 kts | 291° |
| 2026-05-07 14:23 | 51.03360 | -0.41308 | 3437 ft | 220 kts | 316° |
| 2026-05-07 14:23 | 51.04595 | -0.42723 | 3259 ft | 218 kts | 333° |
| 2026-05-07 14:23 | 51.06024 | -0.43392 | 3083 ft | 213 kts | 349° |
| 2026-05-07 14:23 | 51.07477 | -0.43743 | 2895 ft | 211 kts | 358° |
| 2026-05-07 14:24 | 51.08886 | -0.43221 | 2763 ft | 210 kts | 31° |
| 2026-05-07 14:24 | 51.10069 | -0.41861 | 2642 ft | 207 kts | 40° |
| 2026-05-07 14:24 | 51.11164 | -0.40421 | 2548 ft | 202 kts | 43° |
| 2026-05-07 14:24 | 51.11984 | -0.38704 | 2499 ft | 192 kts | 66° |
| 2026-05-07 14:25 | 51.12363 | -0.36706 | 2291 ft | 187 kts | 80° |
| 2026-05-07 14:25 | 51.12634 | -0.34742 | 2041 ft | 176 kts | 79° |
| 2026-05-07 14:25 | 51.12887 | -0.32918 | 1809 ft | 161 kts | 80° |
| 2026-05-07 14:25 | 51.13120 | -0.31245 | 1607 ft | 149 kts | 80° |
| 2026-05-07 14:26 | 51.13346 | -0.29614 | 1413 ft | 155 kts | 80° |
| 2026-05-07 14:26 | 51.13571 | -0.27939 | 1179 ft | 151 kts | 81° |
| 2026-05-07 14:26 | 51.13790 | -0.26369 | 972 ft | 141 kts | 81° |
| 2026-05-07 14:26 | 51.14008 | -0.24896 | 752 ft | 133 kts | 79° |
| 2026-05-07 14:27 | 51.14207 | -0.23423 | 610 ft | 141 kts | 80° |
| 2026-05-07 14:27 | 51.14414 | -0.21944 | 500 ft | 134 kts | 81° |
| 2026-05-07 14:27 | 51.14471 | -0.20354 | 1039 ft | 153 kts | 109° |
| 2026-05-07 14:27 | 51.13729 | -0.19107 | 1603 ft | 166 kts | 160° |
| 2026-05-07 14:28 | 51.12537 | -0.18961 | 2103 ft | 183 kts | 185° |
| 2026-05-07 14:28 | 51.11214 | -0.19156 | 2541 ft | 195 kts | 186° |
| 2026-05-07 14:28 | 51.09882 | -0.19443 | 2634 ft | 194 kts | 188° |
| 2026-05-07 14:28 | 51.08533 | -0.19885 | 2997 ft | 202 kts | 197° |
| 2026-05-07 14:29 | 51.07341 | -0.20985 | 2996 ft | 199 kts | 223° |
| 2026-05-07 14:29 | 51.06408 | -0.22610 | 3012 ft | 199 kts | 229° |
| 2026-05-07 14:29 | 51.05539 | -0.24314 | 3009 ft | 198 kts | 231° |
| 2026-05-07 14:29 | 51.04814 | -0.26175 | 3008 ft | 199 kts | 247° |
| 2026-05-07 14:30 | 51.04333 | -0.28239 | 3010 ft | 199 kts | 250° |
| 2026-05-07 14:30 | 51.04026 | -0.30385 | 3006 ft | 199 kts | 260° |
| 2026-05-07 14:30 | 51.03819 | -0.32558 | 3008 ft | 200 kts | 261° |
| 2026-05-07 14:30 | 51.03622 | -0.34745 | 3009 ft | 200 kts | 262° |
| 2026-05-07 14:31 | 51.03783 | -0.36910 | 2991 ft | 202 kts | 293° |
| 2026-05-07 14:31 | 51.04581 | -0.38748 | 2875 ft | 203 kts | 309° |
| 2026-05-07 14:31 | 51.05500 | -0.40436 | 2751 ft | 201 kts | 311° |
| 2026-05-07 14:31 | 51.06545 | -0.41893 | 2599 ft | 201 kts | 333° |
| 2026-05-07 14:32 | 51.07891 | -0.42435 | 2510 ft | 200 kts | 360° |
| 2026-05-07 14:32 | 51.09172 | -0.41769 | 2503 ft | 195 kts | 34° |
| 2026-05-07 14:32 | 51.10250 | -0.40488 | 2502 ft | 193 kts | 40° |
| 2026-05-07 14:32 | 51.11272 | -0.39157 | 2531 ft | 182 kts | 41° |
| 2026-05-07 14:33 | 51.12091 | -0.37683 | 2385 ft | 177 kts | 62° |
| 2026-05-07 14:33 | 51.12468 | -0.35890 | 2181 ft | 167 kts | 81° |
| 2026-05-07 14:33 | 51.12711 | -0.34153 | 1957 ft | 154 kts | 81° |
| 2026-05-07 14:33 | 51.12938 | -0.32538 | 1747 ft | 144 kts | 80° |
| 2026-05-07 14:34 | 51.13163 | -0.30964 | 1592 ft | 149 kts | 79° |
| 2026-05-07 14:34 | 51.13391 | -0.29383 | 1363 ft | 145 kts | 80° |
| 2026-05-07 14:34 | 51.13609 | -0.27854 | 1172 ft | 142 kts | 79° |
| 2026-05-07 14:34 | 51.13810 | -0.26333 | 959 ft | 138 kts | 81° |
| 2026-05-07 14:35 | 51.14010 | -0.24875 | 753 ft | 131 kts | 80° |
| 2026-05-07 14:35 | 51.14200 | -0.23466 | 597 ft | 131 kts | 80° |
| 2026-05-07 14:35 | 51.14401 | -0.22027 | 425 ft | 134 kts | 80° |
| 2026-05-07 14:35 | 51.14601 | -0.20588 | 239 ft | 132 kts | 79° |
| 2026-05-07 14:36 | 51.14777 | -0.19284 | 206 ft | 105 kts | 78° |
| 2026-05-07 14:36 | 51.14905 | -0.18394 | 206 ft | 64 kts | 77° |
| 2026-05-07 14:36 | 51.14975 | -0.17872 | 211 ft | 33 kts | 77° |
| 2026-05-07 14:36 | 51.15026 | -0.17517 | 206 ft | 34 kts | 77° |
| 2026-05-07 14:37 | 51.15085 | -0.17287 | 207 ft | 12 kts | 58° |
| 2026-05-07 14:37 | 51.15229 | -0.17176 | 213 ft | 13 kts | 344° |
| 2026-05-07 14:37 | 51.15291 | -0.17213 | 207 ft | 10 kts | 330° |
| 2026-05-07 14:38 | 51.15310 | -0.17312 | 204 ft | 11 kts | 262° |
| 2026-05-07 14:38 | 51.15360 | -0.17373 | 204 ft | 11 kts | 350° |
| 2026-05-07 14:38 | 51.15444 | -0.17401 | 204 ft | 13 kts | 347° |
| 2026-05-07 14:38 | 51.15528 | -0.17431 | 209 ft | 12 kts | 347° |
| 2026-05-07 14:39 | 51.15620 | -0.17461 | 206 ft | 15 kts | 349° |
| 2026-05-07 14:39 | 51.15690 | -0.17487 | 204 ft | 8 kts | 347° |
| 2026-05-07 14:39 | 51.15722 | -0.17498 | 212 ft | 0 kts | 347° |
| 2026-05-07 14:39 | 51.15724 | -0.17499 | 211 ft | 1 kts | 347° |
| 2026-05-07 14:40 | 51.15745 | -0.17501 | 207 ft | 4 kts | 4° |
| 2026-05-07 14:40 | 51.15785 | -0.17493 | 208 ft | 7 kts | 349° |
| 2026-05-07 14:40 | 51.15835 | -0.17512 | 204 ft | 6 kts | 348° |
| 2026-05-07 14:40 | 51.15852 | -0.17518 | 204 ft | 0 kts | 348° |